National Weather Service United States Department of Commerce

 

Aviation Weather Center TAFs Radar Soundings/Model Data Soaring
NWS Wichita Home Page Hazardous Weather Outlook NWS Graphical Forecasts

 

Wichita (ICT)
Hutchinson (HUT)
Tactical Decision Aid
 
Tactical Decision Aid
 

 
000
FTUS43 KICT 240520
TAFICT
TAF
KICT 240520Z 2406/2506 30007KT P6SM SKC
FM241600 22010KT P6SM SKC
FM241900 22014G20KT P6SM SKC
FM250000 18007KT P6SM SKC=
 
000
FTUS43 KICT 240520
TAFHUT
TAF
KHUT 240520Z 2406/2506 30009KT P6SM SKC
FM241400 23005KT P6SM SKC
FM241900 23014G20KT P6SM SKC
FM250000 18006KT P6SM SKC=
Salina (SLN) Russell (RSL)
Tactical Decision Aid
Tactical Decision Aid

 
000
FTUS43 KICT 240520
TAFSLN
TAF
KSLN 240520Z 2406/2506 29008KT P6SM SKC
FM241300 22006KT P6SM SKC
FM241900 24015G23KT P6SM SKC
FM250000 19006KT P6SM SKC=

 
000
FTUS43 KICT 240520
TAFRSL
TAF
KRSL 240520Z 2406/2506 29009KT P6SM SKC
FM241900 25015G23KT P6SM SKC
FM250000 23007KT P6SM SKC=
Chanute (CNU) Great Bend (GBD)
Tactical Decision Aid
Tactical Decision Aid

 
000
FTUS43 KICT 240520
TAFCNU
TAF
KCNU 240520Z 2406/2506 31006KT P6SM SKC
FM240900 35006KT P6SM SKC
FM241300 02006KT P6SM SKC
FM241800 19007KT P6SM SKC=

 
000
FTUS43 KICT 240520
TAFGBD
TAF
KGBD 240520Z 2406/2506 28006KT P6SM SKC
FM241900 25015G23KT P6SM SKC
FM250000 23007KT P6SM SKC=
 
NWS Wichita Aviation Forecast Discussion

 

 

IMPORTANT: This page is a tool to help pilots better visualize weather and weather-related hazards, and is not a substitute for a weather briefing obtained from a Flight Service Station (1-800-WXBRIEF). The information contained here does not meet the FAA requirements for a pre-flight weather brief. Therefore, it is important that pilots call and obtain a briefing from an FAA Flight Service Specialist.